This is the latest recevied weather packets stored in our database for station/object GW1544. If no packets are shown the sender has not sent any weather packets the latest 10 day(s).
| Time | Temp. | Humidity | Pressure | Rain* | Wind** | Luminosity | Snow |
|---|---|---|---|---|---|---|---|
| 1777680766 | 12.22° C | 60% | 1021.6 hPa | 0 mm | - | - | - |
| 1777679693 | 12.78° C | 60% | 1021.3 hPa | 0 mm | - | - | - |
| 1777678973 | 12.78° C | 61% | 1021.3 hPa | 0 mm | - | - | - |
| 1777674654 | 14.44° C | 58% | 1020.3 hPa | 0 mm | - | - | - |
| 1777671758 | 15.56° C | 59% | 1020.3 hPa | 0 mm | - | - | - |
| 1777661321 | 16.11° C | 56% | 1019.9 hPa | 0 mm | - | - | - |
| 1777660943 | 16.67° C | 55% | 1019.6 hPa | 0 mm | - | - | - |
| 1777658813 | 16.67° C | 53% | 1019.3 hPa | 0 mm | - | - | - |
| 1777653757 | 17.78° C | 50% | 1018.9 hPa | 0 mm | - | - | - |
| 1777646530 | 15.56° C | 59% | 1019.9 hPa | 0 mm | - | - | - |
| 1777645821 | 14.44° C | 63% | 1020.3 hPa | 0 mm | - | - | - |
| 1777645450 | 14.44° C | 70% | 1020.3 hPa | 0 mm | - | - | - |
| 1777643291 | 12.22° C | 80% | 1020.6 hPa | 0 mm | - | - | - |
| 1777639339 | 6.67° C | 92% | 1020.9 hPa | 0 mm | - | - | - |
| 1777638989 | 6.67° C | 92% | 1020.9 hPa | 0 mm | - | - | - |
| 1777638616 | 5.56° C | 94% | 1020.9 hPa | 0 mm | - | - | - |
| 1777630365 | 3.33° C | 99% | 1021.3 hPa | 0 mm | - | - | - |
| 1777629263 | 2.78° C | 99% | 1021.3 hPa | 0 mm | - | - | - |
| 1777628901 | 2.78° C | 99% | 1021.3 hPa | 0 mm | - | - | - |
| 1777626758 | 2.78° C | 98% | 1022 hPa | 0 mm | - | - | - |
| 1777625668 | 2.78° C | 98% | 1022 hPa | 0 mm | - | - | - |
| 1777624612 | 2.78° C | 98% | 1021.6 hPa | 0 mm | - | - | - |
| 1777624253 | 2.78° C | 98% | 1021.6 hPa | 0 mm | - | - | - |
| 1777623876 | 2.78° C | 98% | 1021.6 hPa | 0 mm | - | - | - |
| 1777623144 | 2.78° C | 98% | 1022 hPa | 0 mm | - | - | - |
* Rain since midnight (hover to see other rain measurements)
** Current wind speed in m/s (hover to see current wind gust speed)